sensor_id;sensor_type;location;lat;lon;timestamp;pressure;altitude;pressure_sealevel;temperature;humidity
72798;BME280;61084;55.816;37.036;2023-03-15T00:00:48;98791.34;;;4.73;58.52
72798;BME280;61084;55.816;37.036;2023-03-15T00:03:14;98787.91;;;4.73;58.03
72798;BME280;61084;55.816;37.036;2023-03-15T00:05:45;98782.84;;;4.70;58.13
72798;BME280;61084;55.816;37.036;2023-03-15T00:08:11;98783.81;;;4.67;58.60
72798;BME280;61084;55.816;37.036;2023-03-15T00:10:41;98779.50;;;4.66;58.19
72798;BME280;61084;55.816;37.036;2023-03-15T00:13:08;98783.03;;;4.65;58.72
72798;BME280;61084;55.816;37.036;2023-03-15T00:15:34;98776.06;;;4.66;58.44
72798;BME280;61084;55.816;37.036;2023-03-15T00:18:00;98770.06;;;4.64;58.83
72798;BME280;61084;55.816;37.036;2023-03-15T00:20:30;98777.88;;;4.64;58.76
72798;BME280;61084;55.816;37.036;2023-03-15T00:22:55;98776.28;;;4.59;58.39
72798;BME280;61084;55.816;37.036;2023-03-15T00:25:21;98778.81;;;4.61;58.52
72798;BME280;61084;55.816;37.036;2023-03-15T00:27:47;98780.47;;;4.64;58.70
72798;BME280;61084;55.816;37.036;2023-03-15T00:30:13;98783.06;;;4.64;58.47
72798;BME280;61084;55.816;37.036;2023-03-15T00:32:39;98775.34;;;4.62;58.69
72798;BME280;61084;55.816;37.036;2023-03-15T00:35:05;98780.59;;;4.61;58.87
72798;BME280;61084;55.816;37.036;2023-03-15T00:37:34;98777.22;;;4.58;58.64
72798;BME280;61084;55.816;37.036;2023-03-15T00:40:02;98781.66;;;4.55;58.73
72798;BME280;61084;55.816;37.036;2023-03-15T00:42:29;98781.66;;;4.55;58.84
72798;BME280;61084;55.816;37.036;2023-03-15T00:44:54;98787.72;;;4.55;59.10
72798;BME280;61084;55.816;37.036;2023-03-15T00:47:20;98785.19;;;4.54;58.62
72798;BME280;61084;55.816;37.036;2023-03-15T00:49:46;98783.44;;;4.54;58.82
72798;BME280;61084;55.816;37.036;2023-03-15T00:52:12;98778.28;;;4.53;59.30
72798;BME280;61084;55.816;37.036;2023-03-15T00:54:38;98784.50;;;4.49;58.82
72798;BME280;61084;55.816;37.036;2023-03-15T00:57:03;98792.38;;;4.47;58.97
72798;BME280;61084;55.816;37.036;2023-03-15T00:59:31;98785.44;;;4.48;59.05
72798;BME280;61084;55.816;37.036;2023-03-15T01:02:01;98785.44;;;4.48;58.98
72798;BME280;61084;55.816;37.036;2023-03-15T01:04:27;98792.31;;;4.49;58.86
72798;BME280;61084;55.816;37.036;2023-03-15T01:06:53;98792.25;;;4.50;59.30
72798;BME280;61084;55.816;37.036;2023-03-15T01:09:20;98788.84;;;4.48;58.94
72798;BME280;61084;55.816;37.036;2023-03-15T01:11:46;98790.56;;;4.49;58.94
72798;BME280;61084;55.816;37.036;2023-03-15T01:14:12;98779.38;;;4.47;58.98
72798;BME280;61084;55.816;37.036;2023-03-15T01:16:38;98787.09;;;4.49;59.41
72798;BME280;61084;55.816;37.036;2023-03-15T01:19:04;98786.25;;;4.48;59.33
72798;BME280;61084;55.816;37.036;2023-03-15T01:21:29;98781.91;;;4.49;59.19
72798;BME280;61084;55.816;37.036;2023-03-15T01:23:55;98782.75;;;4.49;59.20
72798;BME280;61084;55.816;37.036;2023-03-15T01:26:22;98781.06;;;4.48;59.45
72798;BME280;61084;55.816;37.036;2023-03-15T01:28:48;98785.44;;;4.48;59.49
72798;BME280;61084;55.816;37.036;2023-03-15T01:31:20;98775.06;;;4.46;59.56
72798;BME280;61084;55.816;37.036;2023-03-15T01:33:47;98791.53;;;4.47;59.34
72798;BME280;61084;55.816;37.036;2023-03-15T01:36:13;98780.28;;;4.46;59.72
72798;BME280;61084;55.816;37.036;2023-03-15T01:38:40;98783.84;;;4.44;59.60
72798;BME280;61084;55.816;37.036;2023-03-15T01:41:06;98776.00;;;4.45;59.79
72798;BME280;61084;55.816;37.036;2023-03-15T01:43:33;98781.31;;;4.42;59.71
72798;BME280;61084;55.816;37.036;2023-03-15T01:46:23;98785.53;;;4.45;59.84
72798;BME280;61084;55.816;37.036;2023-03-15T01:55:05;98792.72;;;4.38;59.39
72798;BME280;61084;55.816;37.036;2023-03-15T01:57:47;98789.25;;;4.38;60.12
72798;BME280;61084;55.816;37.036;2023-03-15T02:00:17;98784.13;;;4.36;60.12
72798;BME280;61084;55.816;37.036;2023-03-15T02:02:53;98786.81;;;4.35;60.07
72798;BME280;61084;55.816;37.036;2023-03-15T02:05:26;98795.56;;;4.32;59.85
72798;BME280;61084;55.816;37.036;2023-03-15T02:07:55;98799.03;;;4.31;60.02
72798;BME280;61084;55.816;37.036;2023-03-15T02:10:34;98796.38;;;4.33;59.82
72798;BME280;61084;55.816;37.036;2023-03-15T02:13:02;98790.34;;;4.32;60.01
72798;BME280;61084;55.816;37.036;2023-03-15T02:15:29;98795.56;;;4.32;60.20
72798;BME280;61084;55.816;37.036;2023-03-15T02:17:57;98792.88;;;4.34;59.85
72798;BME280;61084;55.816;37.036;2023-03-15T02:21:10;98795.59;;;4.31;60.03
72798;BME280;61084;55.816;37.036;2023-03-15T02:23:39;98794.69;;;4.32;59.66
72798;BME280;61084;55.816;37.036;2023-03-15T02:26:49;98803.34;;;4.32;60.26
72798;BME280;61084;55.816;37.036;2023-03-15T02:29:06;98798.19;;;4.31;60.35
72798;BME280;61084;55.816;37.036;2023-03-15T02:31:33;98800.00;;;4.29;60.33
72798;BME280;61084;55.816;37.036;2023-03-15T02:34:06;98791.38;;;4.28;60.08
72798;BME280;61084;55.816;37.036;2023-03-15T02:36:33;98796.63;;;4.27;59.99
72798;BME280;61084;55.816;37.036;2023-03-15T02:38:59;98804.53;;;4.24;60.07
72798;BME280;61084;55.816;37.036;2023-03-15T02:41:29;98794.16;;;4.24;60.25
72798;BME280;61084;55.816;37.036;2023-03-15T02:44:06;98793.28;;;4.23;60.20
72798;BME280;61084;55.816;37.036;2023-03-15T02:46:33;98791.59;;;4.22;60.43
72798;BME280;61084;55.816;37.036;2023-03-15T02:49:01;98789.00;;;4.22;60.43
72798;BME280;61084;55.816;37.036;2023-03-15T02:51:29;98789.91;;;4.21;60.15
72798;BME280;61084;55.816;37.036;2023-03-15T02:53:56;98787.41;;;4.18;60.53
72798;BME280;61084;55.816;37.036;2023-03-15T02:56:21;98784.88;;;4.17;60.45
72798;BME280;61084;55.816;37.036;2023-03-15T02:58:47;98778.84;;;4.16;60.43
72798;BME280;61084;55.816;37.036;2023-03-15T03:01:14;98782.34;;;4.15;60.69
72798;BME280;61084;55.816;37.036;2023-03-15T03:03:41;98787.53;;;4.15;60.56
72798;BME280;61084;55.816;37.036;2023-03-15T03:06:08;98792.78;;;4.14;60.78
72798;BME280;61084;55.816;37.036;2023-03-15T03:08:36;98784.94;;;4.15;60.96
72798;BME280;61084;55.816;37.036;2023-03-15T03:11:05;98790.19;;;4.14;61.15
72798;BME280;61084;55.816;37.036;2023-03-15T03:13:31;98789.16;;;4.18;60.68
72798;BME280;61084;55.816;37.036;2023-03-15T03:15:58;98795.28;;;4.17;60.82
72798;BME280;61084;55.816;37.036;2023-03-15T03:18:28;98790.09;;;4.17;60.86
72798;BME280;61084;55.816;37.036;2023-03-15T03:20:56;98795.34;;;4.15;60.71
72798;BME280;61084;55.816;37.036;2023-03-15T03:23:24;98795.50;;;4.11;60.85
72798;BME280;61084;55.816;37.036;2023-03-15T03:25:54;98805.88;;;4.11;60.92
72798;BME280;61084;55.816;37.036;2023-03-15T03:28:22;98800.72;;;4.09;60.78
72798;BME280;61084;55.816;37.036;2023-03-15T03:30:52;98808.53;;;4.09;61.16
72798;BME280;61084;55.816;37.036;2023-03-15T03:33:18;98807.63;;;4.10;61.00
72798;BME280;61084;55.816;37.036;2023-03-15T03:35:47;98808.44;;;4.12;61.10
72798;BME280;61084;55.816;37.036;2023-03-15T03:38:13;98812.66;;;4.15;61.34
72798;BME280;61084;55.816;37.036;2023-03-15T03:40:44;98811.88;;;4.13;61.13
72798;BME280;61084;55.816;37.036;2023-03-15T03:43:10;98808.34;;;4.14;60.92
72798;BME280;61084;55.816;37.036;2023-03-15T03:45:35;98823.09;;;4.13;60.92
72798;BME280;61084;55.816;37.036;2023-03-15T03:48:01;98817.06;;;4.13;60.79
72798;BME280;61084;55.816;37.036;2023-03-15T03:50:28;98805.03;;;4.10;61.10
72798;BME280;61084;55.816;37.036;2023-03-15T03:52:54;98803.28;;;4.11;61.03
72798;BME280;61084;55.816;37.036;2023-03-15T03:55:24;98798.94;;;4.11;60.87
72798;BME280;61084;55.816;37.036;2023-03-15T03:57:50;98798.94;;;4.11;61.18
72798;BME280;61084;55.816;37.036;2023-03-15T04:00:51;98805.88;;;4.11;61.37
72798;BME280;61084;55.816;37.036;2023-03-15T04:03:21;98792.00;;;4.12;61.36
72798;BME280;61084;55.816;37.036;2023-03-15T04:06:02;98801.59;;;4.10;61.26
72798;BME280;61084;55.816;37.036;2023-03-15T04:08:33;98807.69;;;4.09;61.03
72798;BME280;61084;55.816;37.036;2023-03-15T04:10:59;98810.28;;;4.09;61.45
72798;BME280;61084;55.816;37.036;2023-03-15T04:13:30;98808.59;;;4.08;61.12
72798;BME280;61084;55.816;37.036;2023-03-15T04:15:58;98805.94;;;4.09;61.34
72798;BME280;61084;55.816;37.036;2023-03-15T04:18:29;98811.91;;;4.11;61.08
72798;BME280;61084;55.816;37.036;2023-03-15T04:20:55;98814.47;;;4.13;61.66
72798;BME280;61084;55.816;37.036;2023-03-15T04:23:22;98821.34;;;4.14;61.52
72798;BME280;61084;55.816;37.036;2023-03-15T04:26:05;98825.66;;;4.15;61.02
72798;BME280;61084;55.816;37.036;2023-03-15T04:28:46;98823.06;;;4.15;61.61
72798;BME280;61084;55.816;37.036;2023-03-15T04:31:28;98822.97;;;4.16;61.27
72798;BME280;61084;55.816;37.036;2023-03-15T04:34:13;98825.53;;;4.18;61.23
72798;BME280;61084;55.816;37.036;2023-03-15T04:36:56;98829.81;;;4.19;61.23
72798;BME280;61084;55.816;37.036;2023-03-15T04:39:57;98835.88;;;4.19;61.21
72798;BME280;61084;55.816;37.036;2023-03-15T04:42:42;98851.28;;;4.24;61.01
72798;BME280;61084;55.816;37.036;2023-03-15T04:45:14;98851.13;;;4.28;60.94
72798;BME280;61084;55.816;37.036;2023-03-15T04:47:59;98843.34;;;4.28;61.11
72798;BME280;61084;55.816;37.036;2023-03-15T04:50:34;98845.88;;;4.30;61.04
72798;BME280;61084;55.816;37.036;2023-03-15T04:53:10;98849.25;;;4.32;60.81
72798;BME280;61084;55.816;37.036;2023-03-15T04:56:02;98849.94;;;4.37;60.70
72798;BME280;61084;55.816;37.036;2023-03-15T04:58:44;98857.56;;;4.41;60.98
72798;BME280;61084;55.816;37.036;2023-03-15T05:01:45;98868.75;;;4.43;60.70
72798;BME280;61084;55.816;37.036;2023-03-15T05:04:40;98866.09;;;4.45;60.63
72798;BME280;61084;55.816;37.036;2023-03-15T05:07:08;98868.50;;;4.49;60.89
72798;BME280;61084;55.816;37.036;2023-03-15T05:09:53;98867.59;;;4.50;60.44
72798;BME280;61084;55.816;37.036;2023-03-15T05:12:38;98876.84;;;4.57;60.33
72798;BME280;61084;55.816;37.036;2023-03-15T05:15:10;98877.38;;;4.67;60.51
72798;BME280;61084;55.816;37.036;2023-03-15T05:17:55;98869.16;;;4.78;60.65
72798;BME280;61084;55.816;37.036;2023-03-15T05:20:41;98870.47;;;4.89;60.27
72798;BME280;61084;55.816;37.036;2023-03-15T05:23:16;98877.00;;;4.99;60.39
72798;BME280;61084;55.816;37.036;2023-03-15T05:26:02;98868.03;;;5.06;59.76
72798;BME280;61084;55.816;37.036;2023-03-15T05:28:46;98878.19;;;5.12;59.83
72798;BME280;61084;55.816;37.036;2023-03-15T05:31:39;98881.47;;;5.17;60.13
72798;BME280;61084;55.816;37.036;2023-03-15T05:34:34;98883.84;;;5.23;59.47
72798;BME280;61084;55.816;37.036;2023-03-15T05:37:18;98881.84;;;5.30;59.73
72798;BME280;61084;55.816;37.036;2023-03-15T05:40:04;98875.53;;;5.35;59.29
72798;BME280;61084;55.816;37.036;2023-03-15T05:42:50;98879.56;;;5.43;59.15
72798;BME280;61084;55.816;37.036;2023-03-15T05:45:19;98882.00;;;5.47;59.05
72798;BME280;61084;55.816;37.036;2023-03-15T05:47:56;98875.75;;;5.51;59.26
72798;BME280;61084;55.816;37.036;2023-03-15T05:50:36;98889.16;;;5.62;58.86
72798;BME280;61084;55.816;37.036;2023-03-15T05:53:34;98893.22;;;5.69;59.12
72798;BME280;61084;55.816;37.036;2023-03-15T05:56:23;98892.78;;;5.80;59.14
72798;BME280;61084;55.816;37.036;2023-03-15T05:59:04;98895.81;;;5.91;59.06
72798;BME280;61084;55.816;37.036;2023-03-15T06:01:36;98902.47;;;5.98;58.46
72798;BME280;61084;55.816;37.036;2023-03-15T06:04:10;98895.06;;;6.07;57.66
72798;BME280;61084;55.816;37.036;2023-03-15T06:06:36;98899.97;;;6.15;58.04
72798;BME280;61084;55.816;37.036;2023-03-15T06:09:04;98902.03;;;6.27;57.86
72798;BME280;61084;55.816;37.036;2023-03-15T06:11:30;98908.41;;;6.40;58.21
72798;BME280;61084;55.816;37.036;2023-03-15T06:13:57;98906.94;;;6.53;57.73
72798;BME280;61084;55.816;37.036;2023-03-15T06:16:39;98912.53;;;6.64;57.83
72798;BME280;61084;55.816;37.036;2023-03-15T06:19:06;98909.50;;;6.73;57.15
72798;BME280;61084;55.816;37.036;2023-03-15T06:21:32;98905.56;;;6.83;57.45
72798;BME280;61084;55.816;37.036;2023-03-15T06:23:58;98912.06;;;6.94;56.82
72798;BME280;61084;55.816;37.036;2023-03-15T06:26:24;98913.41;;;7.02;57.27
72798;BME280;61084;55.816;37.036;2023-03-15T06:28:55;98916.78;;;7.04;57.45
72798;BME280;61084;55.816;37.036;2023-03-15T06:31:21;98917.47;;;7.08;56.67
72798;BME280;61084;55.816;37.036;2023-03-15T06:33:54;98921.59;;;7.13;57.13
72798;BME280;61084;55.816;37.036;2023-03-15T06:36:20;98903.03;;;7.19;58.05
72798;BME280;61084;55.816;37.036;2023-03-15T06:38:46;98913.50;;;7.18;55.91
72798;BME280;61084;55.816;37.036;2023-03-15T06:41:11;98920.34;;;7.20;56.42
72798;BME280;61084;55.816;37.036;2023-03-15T06:43:41;98929.69;;;7.26;56.06
72798;BME280;61084;55.816;37.036;2023-03-15T06:46:07;98931.84;;;7.35;56.61
72798;BME280;61084;55.816;37.036;2023-03-15T06:48:33;98927.19;;;7.41;56.31
72798;BME280;61084;55.816;37.036;2023-03-15T06:50:59;98931.47;;;7.42;56.01
72798;BME280;61084;55.816;37.036;2023-03-15T06:53:25;98938.47;;;7.42;56.16
72798;BME280;61084;55.816;37.036;2023-03-15T06:55:52;98934.00;;;7.44;56.50
72798;BME280;61084;55.816;37.036;2023-03-15T06:58:18;98941.78;;;7.45;56.51
72798;BME280;61084;55.816;37.036;2023-03-15T07:00:44;98933.09;;;7.45;55.88
72798;BME280;61084;55.816;37.036;2023-03-15T07:03:10;98943.63;;;7.43;56.42
72798;BME280;61084;55.816;37.036;2023-03-15T07:05:36;98944.75;;;7.38;56.22
72798;BME280;61084;55.816;37.036;2023-03-15T07:08:02;98940.69;;;7.32;55.55
72798;BME280;61084;55.816;37.036;2023-03-15T07:10:28;98934.53;;;7.33;56.28
72798;BME280;61084;55.816;37.036;2023-03-15T07:12:53;98938.91;;;7.33;56.06
72798;BME280;61084;55.816;37.036;2023-03-15T07:15:19;98942.66;;;7.27;56.17
72798;BME280;61084;55.816;37.036;2023-03-15T07:17:45;98943.63;;;7.25;56.65
72798;BME280;61084;55.816;37.036;2023-03-15T07:20:11;98943.50;;;7.28;56.13
72798;BME280;61084;55.816;37.036;2023-03-15T07:22:37;98945.34;;;7.26;56.75
72798;BME280;61084;55.816;37.036;2023-03-15T07:25:03;98936.56;;;7.27;56.00
72798;BME280;61084;55.816;37.036;2023-03-15T07:27:30;98952.31;;;7.25;56.35
72798;BME280;61084;55.816;37.036;2023-03-15T07:29:56;98953.84;;;7.29;55.84
72798;BME280;61084;55.816;37.036;2023-03-15T07:32:22;98953.56;;;7.35;56.53
72798;BME280;61084;55.816;37.036;2023-03-15T07:34:48;98945.38;;;7.43;56.27
72798;BME280;61084;55.816;37.036;2023-03-15T07:37:13;98949.47;;;7.48;56.20
72798;BME280;61084;55.816;37.036;2023-03-15T07:39:40;98948.38;;;7.52;56.26
72798;BME280;61084;55.816;37.036;2023-03-15T07:42:06;98953.25;;;7.60;55.89
72798;BME280;61084;55.816;37.036;2023-03-15T07:44:38;98951.34;;;7.63;55.70
72798;BME280;61084;55.816;37.036;2023-03-15T07:47:04;98953.81;;;7.67;56.03
72798;BME280;61084;55.816;37.036;2023-03-15T07:49:30;98956.56;;;7.63;55.03
72798;BME280;61084;55.816;37.036;2023-03-15T07:51:56;98955.66;;;7.65;55.50
72798;BME280;61084;55.816;37.036;2023-03-15T07:54:22;98958.25;;;7.65;55.92
72798;BME280;61084;55.816;37.036;2023-03-15T07:56:48;98955.66;;;7.65;56.11
72798;BME280;61084;55.816;37.036;2023-03-15T07:59:13;98950.50;;;7.63;55.77
72798;BME280;61084;55.816;37.036;2023-03-15T08:01:40;98960.78;;;7.66;55.69
72798;BME280;61084;55.816;37.036;2023-03-15T08:04:05;98966.56;;;7.73;55.80
72798;BME280;61084;55.816;37.036;2023-03-15T08:06:31;98963.06;;;7.91;55.49
72798;BME280;61084;55.816;37.036;2023-03-15T08:08:57;98962.94;;;8.11;55.57
72798;BME280;61084;55.816;37.036;2023-03-15T08:11:22;98957.72;;;8.28;55.20
72798;BME280;61084;55.816;37.036;2023-03-15T08:13:48;98958.63;;;8.44;55.05
72798;BME280;61084;55.816;37.036;2023-03-15T08:16:14;98964.56;;;8.48;55.40
72798;BME280;61084;55.816;37.036;2023-03-15T08:18:40;98960.00;;;8.51;55.00
72798;BME280;61084;55.816;37.036;2023-03-15T08:21:05;98965.69;;;8.59;54.72
72798;BME280;61084;55.816;37.036;2023-03-15T08:23:31;98970.75;;;8.62;54.54
72798;BME280;61084;55.816;37.036;2023-03-15T08:25:57;98962.59;;;8.68;54.61
72798;BME280;61084;55.816;37.036;2023-03-15T08:28:23;98966.59;;;8.75;54.46
72798;BME280;61084;55.816;37.036;2023-03-15T08:30:48;98958.59;;;8.78;54.26
72798;BME280;61084;55.816;37.036;2023-03-15T08:33:14;98966.25;;;8.81;54.51
72798;BME280;61084;55.816;37.036;2023-03-15T08:35:40;98956.50;;;8.85;54.93
72798;BME280;61084;55.816;37.036;2023-03-15T08:38:06;98964.00;;;8.91;54.12
72798;BME280;61084;55.816;37.036;2023-03-15T08:40:31;98957.91;;;8.90;54.77
72798;BME280;61084;55.816;37.036;2023-03-15T08:42:58;98962.38;;;8.88;53.92
72798;BME280;61084;55.816;37.036;2023-03-15T08:45:24;98957.59;;;8.96;54.06
72798;BME280;61084;55.816;37.036;2023-03-15T08:47:57;98955.47;;;9.03;53.87
72798;BME280;61084;55.816;37.036;2023-03-15T08:50:24;98957.38;;;9.17;52.91
72798;BME280;61084;55.816;37.036;2023-03-15T08:52:50;98955.16;;;9.25;54.25
72798;BME280;61084;55.816;37.036;2023-03-15T08:55:16;98954.66;;;9.34;53.86
72798;BME280;61084;55.816;37.036;2023-03-15T08:57:42;98955.94;;;9.42;53.42
72798;BME280;61084;55.816;37.036;2023-03-15T09:00:09;98957.13;;;9.52;53.47
72798;BME280;61084;55.816;37.036;2023-03-15T09:02:55;98955.66;;;9.62;53.21
72798;BME280;61084;55.816;37.036;2023-03-15T09:05:22;98948.91;;;9.74;53.11
72798;BME280;61084;55.816;37.036;2023-03-15T09:07:49;98951.94;;;9.82;53.14
72798;BME280;61084;55.816;37.036;2023-03-15T09:10:17;98948.84;;;9.89;53.23
72798;BME280;61084;55.816;37.036;2023-03-15T09:12:45;98951.16;;;9.96;52.75
72798;BME280;61084;55.816;37.036;2023-03-15T09:15:12;98954.25;;;10.02;52.81
72798;BME280;61084;55.816;37.036;2023-03-15T09:17:39;98946.94;;;10.07;53.07
72798;BME280;61084;55.816;37.036;2023-03-15T09:20:06;98952.03;;;10.10;52.77
72798;BME280;61084;55.816;37.036;2023-03-15T09:22:40;98948.66;;;10.08;52.88
72798;BME280;61084;55.816;37.036;2023-03-15T09:25:06;98947.31;;;10.17;52.64
72798;BME280;61084;55.816;37.036;2023-03-15T09:27:32;98952.19;;;10.23;52.23
72798;BME280;61084;55.816;37.036;2023-03-15T09:29:58;98953.53;;;10.30;52.43
72798;BME280;61084;55.816;37.036;2023-03-15T09:32:24;98954.28;;;10.32;52.17
72798;BME280;61084;55.816;37.036;2023-03-15T09:34:50;98960.28;;;10.34;52.16
72798;BME280;61084;55.816;37.036;2023-03-15T09:37:16;98959.84;;;10.41;51.75
72798;BME280;61084;55.816;37.036;2023-03-15T09:39:42;98965.25;;;10.38;52.17
72798;BME280;61084;55.816;37.036;2023-03-15T09:42:22;98971.25;;;10.40;52.66
72798;BME280;61084;55.816;37.036;2023-03-15T09:45:34;98975.31;;;10.46;51.87
72798;BME280;61084;55.816;37.036;2023-03-15T09:48:14;98977.34;;;10.55;52.23
72798;BME280;61084;55.816;37.036;2023-03-15T09:53:15;98970.56;;;10.81;52.28
72798;BME280;61084;55.816;37.036;2023-03-15T09:55:45;98978.50;;;10.79;51.70
72798;BME280;61084;55.816;37.036;2023-03-15T11:22:25;98967.50;;;9.23;55.74
72798;BME280;61084;55.816;37.036;2023-03-15T11:24:52;98962.53;;;9.34;56.04
72798;BME280;61084;55.816;37.036;2023-03-15T11:27:22;98957.38;;;9.48;55.40
72798;BME280;61084;55.816;37.036;2023-03-15T11:29:53;98958.53;;;9.58;54.85
72798;BME280;61084;55.816;37.036;2023-03-15T11:32:26;98955.66;;;9.62;55.04
72798;BME280;61084;55.816;37.036;2023-03-15T11:35:01;98957.03;;;9.69;54.41
72798;BME280;61084;55.816;37.036;2023-03-15T11:37:51;98959.56;;;9.71;54.25
72798;BME280;61084;55.816;37.036;2023-03-15T11:40:32;98952.44;;;9.73;54.38
72798;BME280;61084;55.816;37.036;2023-03-15T11:46:03;98952.13;;;9.63;53.90
72798;BME280;61084;55.816;37.036;2023-03-15T11:48:44;98952.47;;;9.57;54.61
72798;BME280;61084;55.816;37.036;2023-03-15T11:51:12;98962.94;;;9.57;54.29
72798;BME280;61084;55.816;37.036;2023-03-15T11:57:00;98970.63;;;9.60;53.78
72798;BME280;61084;55.816;37.036;2023-03-15T11:59:37;98974.94;;;9.61;53.75
72798;BME280;61084;55.816;37.036;2023-03-15T12:04:37;98975.53;;;9.66;54.00
72798;BME280;61084;55.816;37.036;2023-03-15T12:07:22;98973.66;;;9.68;54.02
72798;BME280;61084;55.816;37.036;2023-03-15T12:20:36;98963.28;;;9.67;53.41
72798;BME280;61084;55.816;37.036;2023-03-15T12:25:55;98960.50;;;9.70;53.78
72798;BME280;61084;55.816;37.036;2023-03-15T12:30:55;98962.94;;;9.73;53.22
72798;BME280;61084;55.816;37.036;2023-03-15T12:33:24;98962.78;;;9.76;53.44
72798;BME280;61084;55.816;37.036;2023-03-15T12:35:59;98965.69;;;9.85;53.54
72798;BME280;61084;55.816;37.036;2023-03-15T12:38:31;98966.78;;;9.97;53.78
72798;BME280;61084;55.816;37.036;2023-03-15T12:40:59;98962.69;;;10.07;53.74
72798;BME280;61084;55.816;37.036;2023-03-15T12:43:42;98951.25;;;10.24;53.09
72798;BME280;61084;55.816;37.036;2023-03-15T12:54:43;98964.50;;;10.50;53.06
72798;BME280;61084;55.816;37.036;2023-03-15T12:57:12;98966.59;;;10.59;53.13
72798;BME280;61084;55.816;37.036;2023-03-15T12:59:53;98961.00;;;10.66;52.78
72798;BME280;61084;55.816;37.036;2023-03-15T13:05:00;98967.34;;;10.90;52.84
72798;BME280;61084;55.816;37.036;2023-03-15T13:07:55;98971.88;;;11.02;51.78
72798;BME280;61084;55.816;37.036;2023-03-15T13:10:31;98971.66;;;11.05;52.28
72798;BME280;61084;55.816;37.036;2023-03-15T13:15:48;98975.06;;;11.07;51.67
72798;BME280;61084;55.816;37.036;2023-03-15T13:18:23;98971.78;;;11.03;51.71
72798;BME280;61084;55.816;37.036;2023-03-15T13:23:36;98974.97;;;11.08;51.67
72798;BME280;61084;55.816;37.036;2023-03-15T13:26:19;98977.03;;;11.03;51.83
72798;BME280;61084;55.816;37.036;2023-03-15T13:29:30;98977.13;;;11.02;51.92
72798;BME280;61084;55.816;37.036;2023-03-15T13:34:31;98975.53;;;11.13;51.67
72798;BME280;61084;55.816;37.036;2023-03-15T13:36:59;98974.66;;;11.27;51.58
72798;BME280;61084;55.816;37.036;2023-03-15T13:39:33;98973.53;;;11.31;51.92
72798;BME280;61084;55.816;37.036;2023-03-15T13:42:02;98970.16;;;11.29;51.51
72798;BME280;61084;55.816;37.036;2023-03-15T13:44:29;98980.59;;;11.30;51.34
72798;BME280;61084;55.816;37.036;2023-03-15T13:46:55;98982.47;;;11.28;51.31
72798;BME280;61084;55.816;37.036;2023-03-15T13:49:22;98988.53;;;11.29;51.08
72798;BME280;61084;55.816;37.036;2023-03-15T13:51:49;98990.25;;;11.30;51.04
72798;BME280;61084;55.816;37.036;2023-03-15T13:54:23;98996.69;;;11.24;51.32
72798;BME280;61084;55.816;37.036;2023-03-15T13:57:06;98990.34;;;11.14;51.42
72798;BME280;61084;55.816;37.036;2023-03-15T14:01:59;98994.34;;;10.92;51.31
72798;BME280;61084;55.816;37.036;2023-03-15T14:04:27;98998.31;;;10.85;51.24
72798;BME280;61084;55.816;37.036;2023-03-15T14:09:46;98993.25;;;10.68;51.62
72798;BME280;61084;55.816;37.036;2023-03-15T14:12:20;98990.03;;;10.63;51.56
72798;BME280;61084;55.816;37.036;2023-03-15T14:14:52;98997.44;;;10.56;51.82
72798;BME280;61084;55.816;37.036;2023-03-15T14:17:30;98994.22;;;10.51;51.43
72798;BME280;61084;55.816;37.036;2023-03-15T14:20:07;98994.69;;;10.43;51.87
72798;BME280;61084;55.816;37.036;2023-03-15T14:22:40;98991.59;;;10.37;51.98
72798;BME280;61084;55.816;37.036;2023-03-15T14:25:19;98991.00;;;10.32;51.98
72798;BME280;61084;55.816;37.036;2023-03-15T14:27:45;98997.34;;;10.28;52.31
72798;BME280;61084;55.816;37.036;2023-03-15T14:30:24;98995.16;;;10.20;51.80
72798;BME280;61084;55.816;37.036;2023-03-15T14:32:55;98997.22;;;10.15;52.21
72798;BME280;61084;55.816;37.036;2023-03-15T14:35:31;98994.16;;;10.07;51.95
72798;BME280;61084;55.816;37.036;2023-03-15T14:40:37;98992.00;;;9.84;52.47
72798;BME280;61084;55.816;37.036;2023-03-15T14:43:05;99003.41;;;9.83;52.61
72798;BME280;61084;55.816;37.036;2023-03-15T14:45:32;98999.47;;;9.76;52.60
72798;BME280;61084;55.816;37.036;2023-03-15T14:48:02;99002.84;;;9.62;52.84
72798;BME280;61084;55.816;37.036;2023-03-15T14:50:36;98997.19;;;9.54;52.94
72798;BME280;61084;55.816;37.036;2023-03-15T14:53:04;99008.25;;;9.44;52.86
72798;BME280;61084;55.816;37.036;2023-03-15T14:55:34;99002.81;;;9.31;52.57
72798;BME280;61084;55.816;37.036;2023-03-15T14:58:10;98996.72;;;9.15;52.92
72798;BME280;61084;55.816;37.036;2023-03-15T15:00:36;99002.44;;;9.06;53.51
72798;BME280;61084;55.816;37.036;2023-03-15T15:03:03;99000.22;;;8.98;53.65
72798;BME280;61084;55.816;37.036;2023-03-15T15:05:34;98992.88;;;8.89;53.43
72798;BME280;61084;55.816;37.036;2023-03-15T15:08:08;98993.38;;;8.80;53.90
72798;BME280;61084;55.816;37.036;2023-03-15T15:10:34;98994.75;;;8.70;53.68
72798;BME280;61084;55.816;37.036;2023-03-15T15:13:01;98993.41;;;8.63;53.70
72798;BME280;61084;55.816;37.036;2023-03-15T15:15:28;98984.31;;;8.53;54.35
72798;BME280;61084;55.816;37.036;2023-03-15T15:17:54;98987.47;;;8.43;54.03
72798;BME280;61084;55.816;37.036;2023-03-15T15:20:20;98988.03;;;8.32;54.15
72798;BME280;61084;55.816;37.036;2023-03-15T15:22:48;98990.00;;;8.27;54.03
72798;BME280;61084;55.816;37.036;2023-03-15T15:25:19;98994.00;;;8.17;54.39
72798;BME280;61084;55.816;37.036;2023-03-15T15:27:46;98992.44;;;8.13;54.83
72798;BME280;61084;55.816;37.036;2023-03-15T15:32:40;98992.13;;;8.02;54.46
72798;BME280;61084;55.816;37.036;2023-03-15T15:35:14;99001.06;;;7.98;54.58
72798;BME280;61084;55.816;37.036;2023-03-15T15:37:42;99003.13;;;7.91;54.96
72798;BME280;61084;55.816;37.036;2023-03-15T15:42:46;99008.16;;;7.77;55.03
72798;BME280;61084;55.816;37.036;2023-03-15T15:45:14;99009.34;;;7.70;55.19
72798;BME280;61084;55.816;37.036;2023-03-15T15:47:41;99007.97;;;7.63;55.58